sensor_id;sensor_type;location;lat;lon;timestamp;pressure;altitude;pressure_sealevel;temperature;humidity
37694;BME280;23531;50.122;8.644;2023-03-15T00:01:08;100173.94;;;6.35;64.71
37694;BME280;23531;50.122;8.644;2023-03-15T00:03:11;100181.84;;;6.43;64.38
37694;BME280;23531;50.122;8.644;2023-03-15T00:05:13;100181.22;;;6.41;64.80
37694;BME280;23531;50.122;8.644;2023-03-15T00:07:15;100191.06;;;6.40;64.78
37694;BME280;23531;50.122;8.644;2023-03-15T00:09:16;100191.50;;;6.44;64.65
37694;BME280;23531;50.122;8.644;2023-03-15T00:11:17;100191.91;;;6.41;63.84
37694;BME280;23531;50.122;8.644;2023-03-15T00:13:19;100195.97;;;6.22;63.61
37694;BME280;23531;50.122;8.644;2023-03-15T00:15:21;100200.88;;;6.18;64.14
37694;BME280;23531;50.122;8.644;2023-03-15T00:17:22;100207.47;;;6.23;63.95
37694;BME280;23531;50.122;8.644;2023-03-15T00:19:24;100205.75;;;6.15;63.95
37694;BME280;23531;50.122;8.644;2023-03-15T00:21:25;100212.09;;;6.14;63.33
37694;BME280;23531;50.122;8.644;2023-03-15T00:23:28;100212.28;;;6.12;63.46
37694;BME280;23531;50.122;8.644;2023-03-15T00:25:30;100213.94;;;6.13;63.40
37694;BME280;23531;50.122;8.644;2023-03-15T00:27:32;100222.13;;;6.12;62.84
37694;BME280;23531;50.122;8.644;2023-03-15T00:29:33;100232.44;;;6.00;62.46
37694;BME280;23531;50.122;8.644;2023-03-15T00:31:36;100229.50;;;6.10;61.62
37694;BME280;23531;50.122;8.644;2023-03-15T00:33:38;100225.28;;;6.15;61.51
37694;BME280;23531;50.122;8.644;2023-03-15T00:35:41;100236.41;;;6.04;61.80
37694;BME280;23531;50.122;8.644;2023-03-15T00:37:43;100239.63;;;6.00;60.85
37694;BME280;23531;50.122;8.644;2023-03-15T00:39:44;100236.78;;;6.01;61.03
37694;BME280;23531;50.122;8.644;2023-03-15T00:41:46;100233.75;;;6.04;60.61
37694;BME280;23531;50.122;8.644;2023-03-15T00:43:47;100232.91;;;6.04;60.86
37694;BME280;23531;50.122;8.644;2023-03-15T00:45:48;100234.22;;;5.93;59.99
37694;BME280;23531;50.122;8.644;2023-03-15T00:47:52;100235.72;;;5.88;60.38
37694;BME280;23531;50.122;8.644;2023-03-15T00:49:53;100240.63;;;5.69;59.80
37694;BME280;23531;50.122;8.644;2023-03-15T00:51:55;100238.31;;;5.66;60.31
37694;BME280;23531;50.122;8.644;2023-03-15T00:53:56;100231.78;;;5.69;60.57
37694;BME280;23531;50.122;8.644;2023-03-15T00:55:57;100235.75;;;5.73;60.71
37694;BME280;23531;50.122;8.644;2023-03-15T00:57:59;100240.16;;;5.80;60.26
37694;BME280;23531;50.122;8.644;2023-03-15T01:00:00;100245.97;;;5.84;60.42
37694;BME280;23531;50.122;8.644;2023-03-15T01:02:07;100251.63;;;5.66;60.03
37694;BME280;23531;50.122;8.644;2023-03-15T01:04:10;100259.44;;;5.53;60.24
37694;BME280;23531;50.122;8.644;2023-03-15T01:06:13;100263.06;;;5.60;60.85
37694;BME280;23531;50.122;8.644;2023-03-15T01:08:14;100272.16;;;5.51;60.45
37694;BME280;23531;50.122;8.644;2023-03-15T01:10:16;100269.22;;;5.61;60.24
37694;BME280;23531;50.122;8.644;2023-03-15T01:12:17;100269.88;;;5.63;60.38
37694;BME280;23531;50.122;8.644;2023-03-15T01:14:18;100269.22;;;5.61;59.93
37694;BME280;23531;50.122;8.644;2023-03-15T01:16:20;100279.22;;;5.59;59.99
37694;BME280;23531;50.122;8.644;2023-03-15T01:18:21;100273.16;;;5.65;59.50
37694;BME280;23531;50.122;8.644;2023-03-15T01:20:24;100273.41;;;5.55;59.77
37694;BME280;23531;50.122;8.644;2023-03-15T01:22:25;100273.81;;;5.67;59.93
37694;BME280;23531;50.122;8.644;2023-03-15T01:24:27;100278.84;;;5.47;60.14
37694;BME280;23531;50.122;8.644;2023-03-15T01:26:28;100290.41;;;5.39;60.78
37694;BME280;23531;50.122;8.644;2023-03-15T01:28:30;100279.06;;;5.60;61.55
37694;BME280;23531;50.122;8.644;2023-03-15T01:30:31;100282.44;;;5.54;61.81
37694;BME280;23531;50.122;8.644;2023-03-15T01:32:33;100283.66;;;5.52;61.99
37694;BME280;23531;50.122;8.644;2023-03-15T01:34:34;100284.00;;;5.48;62.46
37694;BME280;23531;50.122;8.644;2023-03-15T01:36:37;100280.06;;;5.59;62.62
37694;BME280;23531;50.122;8.644;2023-03-15T01:38:39;100284.34;;;5.45;62.91
37694;BME280;23531;50.122;8.644;2023-03-15T01:40:41;100286.06;;;5.61;63.08
37694;BME280;23531;50.122;8.644;2023-03-15T01:42:51;100293.09;;;5.54;63.16
37694;BME280;23531;50.122;8.644;2023-03-15T01:44:54;100293.13;;;5.31;63.33
37694;BME280;23531;50.122;8.644;2023-03-15T01:46:55;100299.59;;;5.14;64.22
37694;BME280;23531;50.122;8.644;2023-03-15T01:48:59;100293.97;;;5.09;64.70
37694;BME280;23531;50.122;8.644;2023-03-15T01:51:04;100297.13;;;5.13;64.83
37694;BME280;23531;50.122;8.644;2023-03-15T01:53:09;100306.59;;;5.15;64.39
37694;BME280;23531;50.122;8.644;2023-03-15T01:55:11;100302.28;;;5.14;64.58
37694;BME280;23531;50.122;8.644;2023-03-15T01:57:15;100306.41;;;5.17;65.24
37694;BME280;23531;50.122;8.644;2023-03-15T01:59:20;100305.63;;;5.31;64.67
37694;BME280;23531;50.122;8.644;2023-03-15T02:01:22;100305.00;;;5.29;64.89
37694;BME280;23531;50.122;8.644;2023-03-15T02:03:24;100310.59;;;5.34;64.58
37694;BME280;23531;50.122;8.644;2023-03-15T02:05:27;100305.69;;;5.23;64.63
37694;BME280;23531;50.122;8.644;2023-03-15T02:07:31;100316.19;;;5.01;65.08
37694;BME280;23531;50.122;8.644;2023-03-15T02:09:36;100317.25;;;5.15;65.31
37694;BME280;23531;50.122;8.644;2023-03-15T02:11:41;100328.25;;;5.35;64.86
37694;BME280;23531;50.122;8.644;2023-03-15T02:13:43;100327.56;;;5.41;64.92
37694;BME280;23531;50.122;8.644;2023-03-15T02:15:45;100329.50;;;5.24;64.70
37694;BME280;23531;50.122;8.644;2023-03-15T02:17:48;100325.84;;;5.25;64.92
37694;BME280;23531;50.122;8.644;2023-03-15T02:19:52;100318.84;;;5.24;64.72
37694;BME280;23531;50.122;8.644;2023-03-15T02:21:58;100320.03;;;5.44;64.63
37694;BME280;23531;50.122;8.644;2023-03-15T02:24:04;100320.41;;;5.41;64.33
37694;BME280;23531;50.122;8.644;2023-03-15T02:26:13;100318.16;;;5.30;64.07
37694;BME280;23531;50.122;8.644;2023-03-15T02:28:19;100319.34;;;5.28;64.28
37694;BME280;23531;50.122;8.644;2023-03-15T02:30:20;100323.19;;;5.25;64.12
37694;BME280;23531;50.122;8.644;2023-03-15T02:32:22;100321.44;;;5.32;64.81
37694;BME280;23531;50.122;8.644;2023-03-15T02:34:23;100324.66;;;5.28;64.41
37694;BME280;23531;50.122;8.644;2023-03-15T02:36:25;100324.50;;;5.29;64.58
37694;BME280;23531;50.122;8.644;2023-03-15T02:38:27;100325.94;;;5.32;64.55
37694;BME280;23531;50.122;8.644;2023-03-15T02:40:30;100324.91;;;5.41;64.16
37694;BME280;23531;50.122;8.644;2023-03-15T02:42:31;100324.50;;;5.29;64.07
37694;BME280;23531;50.122;8.644;2023-03-15T02:44:34;100323.28;;;5.32;64.43
37694;BME280;23531;50.122;8.644;2023-03-15T02:46:37;100322.81;;;5.28;64.59
37694;BME280;23531;50.122;8.644;2023-03-15T02:48:38;100324.25;;;5.16;63.59
37694;BME280;23531;50.122;8.644;2023-03-15T02:50:41;100340.72;;;4.89;64.40
37694;BME280;23531;50.122;8.644;2023-03-15T02:52:42;100336.13;;;4.83;64.67
37694;BME280;23531;50.122;8.644;2023-03-15T02:54:43;100341.34;;;4.99;65.07
37694;BME280;23531;50.122;8.644;2023-03-15T02:56:45;100345.28;;;4.80;64.80
37694;BME280;23531;50.122;8.644;2023-03-15T02:58:46;100346.84;;;4.66;65.15
37694;BME280;23531;50.122;8.644;2023-03-15T03:00:49;100357.19;;;4.61;65.52
